Elmo, TX

6:15 PM CST on November 21, 2014 (GMT -0600)
Mesquite Metro | Change Station
CLOSE
Current Station
Airport
Location: Mesquite,
Elevation: 446 ft
Nearby Weather Stations

Elev 446 ft 32.75 °N, 96.53 °W | Updated 25 minutes ago

Overcast
Overcast
64 °F
Feels Like 64 °F
N
9
Wind Variable Wind from SE

Today
High -- | Low -- °F
--% Chance of Precip.
Yesterday
High -- | Low -- °F
Precip. -- in
7:00 AM 5:20 PM
Waning Crescent, 0% visible
Pressure 30.07 in
Visibility 10.0 miles
Clouds Overcast 800 ft
Dew Point 61 °F
Humidity 88%
Rainfall 0.00 in
Snow Depth Not available.
UV 0 out of 12
Pollen 3.20 out of 12
Air Quality Not available.
Flu Activity Not available.
METAR KHQZ 212350Z 13008KT 10SM OVC008 18/16 A3007

More Conditions Fewer Conditions

Pressure 30.07 in
Visibility 10.0 miles
Clouds Overcast 800 ft
Dew Point 61 °F
Humidity 88%
Rainfall 0.00 in
Snow Depth Not available.
UV 0 out of 12
Pollen 3.20 out of 12
Air Quality Not available.
Flu Activity Not available.
METAR KHQZ 212350Z 13008KT 10SM OVC008 18/16 A3007

More Conditions Fewer Conditions

Nowcast | as of 5:40 PM CST on November 21, 2014

Heavy shower activity around Cameron will move north northeast at 30 mph toward Corsicana. Isolated to scattered rain showers will affect locations east of a Killeen to Dallas to Sherman line through 10 PM. Although the rainfall should be light this evening...areas from Killeen to Cameron northward to Ennis and Athens could see stronger activity and heavier rainfall up to one half of an inch. Evening temperatures will cool slowly with most locations being in the 60s through 10 PM. Southeasterly winds will stay up this evening...and when combined with the cool...humid air...will produce a slight chill. If going out this evening...you might wish to take a light weight sweeter or jacket.

×

10-Day Weather Forecast

Almanac

Astronomy

Nov. 21, 2014 Rise Set
Actual Time
Civil Twilight
Nautical Twilight
Astronomical Twilight
Moon
Length of Visible Light
Length of Day
Tomorrow will be .
, % of the Moon is Illuminated

Today's Extremes

State Highs State Lows

Community

WunderPhotos

Upload Photos

1,772,744 photos uploaded!

WunderBlogs® & News

Nearby

Air Quality

  Air Quality AQ Index Pollutant
Not available.

Snow Depth

Station Depth Elevation

Earthquake Activity

City Distance Mag. Time & Date
Minimum magnitude displayed is 2.5.

Coastal Water Temperatures

Place Temperature

Nearby Weather Stations